sensor_id;sensor_type;location;lat;lon;timestamp;pressure;altitude;pressure_sealevel;temperature;humidity
53041;BME280;39326;42.650;23.248;2023-03-21T00:01:56;92420.16;;;9.92;48.99
53041;BME280;39326;42.650;23.248;2023-03-21T00:04:24;92418.63;;;9.88;48.98
53041;BME280;39326;42.650;23.248;2023-03-21T00:06:51;92424.34;;;9.86;49.34
53041;BME280;39326;42.650;23.248;2023-03-21T00:09:18;92425.13;;;9.83;49.46
53041;BME280;39326;42.650;23.248;2023-03-21T00:11:44;92415.97;;;9.73;49.74
53041;BME280;39326;42.650;23.248;2023-03-21T00:14:11;92423.59;;;9.64;50.15
53041;BME280;39326;42.650;23.248;2023-03-21T00:16:39;92409.88;;;9.59;50.04
53041;BME280;39326;42.650;23.248;2023-03-21T00:19:05;92409.47;;;9.57;50.47
53041;BME280;39326;42.650;23.248;2023-03-21T00:21:32;92402.28;;;9.61;49.85
53041;BME280;39326;42.650;23.248;2023-03-21T00:23:59;92412.16;;;9.60;50.03
53041;BME280;39326;42.650;23.248;2023-03-21T00:26:25;92403.81;;;9.58;50.50
53041;BME280;39326;42.650;23.248;2023-03-21T00:28:51;92408.34;;;9.54;50.15
53041;BME280;39326;42.650;23.248;2023-03-21T00:31:17;92413.28;;;9.48;50.75
53041;BME280;39326;42.650;23.248;2023-03-21T00:33:44;92411.41;;;9.45;51.17
53041;BME280;39326;42.650;23.248;2023-03-21T00:36:11;92411.41;;;9.45;50.76
53041;BME280;39326;42.650;23.248;2023-03-21T00:38:37;92406.81;;;9.42;50.87
53041;BME280;39326;42.650;23.248;2023-03-21T00:41:07;92404.91;;;9.43;50.91
53041;BME280;39326;42.650;23.248;2023-03-21T00:43:34;92402.25;;;9.39;51.18
53041;BME280;39326;42.650;23.248;2023-03-21T00:46:00;92401.13;;;9.40;50.86
53041;BME280;39326;42.650;23.248;2023-03-21T00:48:26;92398.03;;;9.31;51.01
53041;BME280;39326;42.650;23.248;2023-03-21T00:50:53;92402.59;;;9.23;51.32
53041;BME280;39326;42.650;23.248;2023-03-21T00:53:20;92401.44;;;9.17;51.26
53041;BME280;39326;42.650;23.248;2023-03-21T00:55:46;92394.59;;;9.16;51.50
53041;BME280;39326;42.650;23.248;2023-03-21T00:58:12;92397.66;;;9.18;51.24
53041;BME280;39326;42.650;23.248;2023-03-21T01:00:38;92400.31;;;9.08;51.57
53041;BME280;39326;42.650;23.248;2023-03-21T01:03:06;92396.09;;;9.07;51.80
53041;BME280;39326;42.650;23.248;2023-03-21T01:05:43;92397.63;;;9.11;52.02
53041;BME280;39326;42.650;23.248;2023-03-21T01:08:28;92394.56;;;9.06;51.97
53041;BME280;39326;42.650;23.248;2023-03-21T01:10:54;92390.38;;;8.90;52.36
53041;BME280;39326;42.650;23.248;2023-03-21T01:13:22;92396.41;;;8.87;51.92
53041;BME280;39326;42.650;23.248;2023-03-21T01:15:51;92392.63;;;8.85;52.50
53041;BME280;39326;42.650;23.248;2023-03-21T01:18:19;92383.84;;;8.70;52.74
53041;BME280;39326;42.650;23.248;2023-03-21T01:20:47;92383.47;;;8.75;52.27
53041;BME280;39326;42.650;23.248;2023-03-21T01:23:14;92391.09;;;8.77;52.89
53041;BME280;39326;42.650;23.248;2023-03-21T01:25:40;92389.91;;;8.74;52.81
53041;BME280;39326;42.650;23.248;2023-03-21T01:28:07;92388.78;;;8.75;52.24
53041;BME280;39326;42.650;23.248;2023-03-21T01:30:33;92398.31;;;8.76;52.79
53041;BME280;39326;42.650;23.248;2023-03-21T01:32:59;92388.78;;;8.75;52.75
53041;BME280;39326;42.650;23.248;2023-03-21T01:35:25;92386.53;;;8.77;52.56
53041;BME280;39326;42.650;23.248;2023-03-21T01:37:51;92383.09;;;8.77;52.88
53041;BME280;39326;42.650;23.248;2023-03-21T01:40:22;92388.44;;;8.77;53.26
53041;BME280;39326;42.650;23.248;2023-03-21T01:42:49;92389.53;;;8.72;53.24
53041;BME280;39326;42.650;23.248;2023-03-21T01:48:20;92387.63;;;8.65;53.82
53041;BME280;39326;42.650;23.248;2023-03-21T01:50:48;92384.19;;;8.68;53.41
53041;BME280;39326;42.650;23.248;2023-03-21T01:53:15;92385.72;;;8.69;53.45
53041;BME280;39326;42.650;23.248;2023-03-21T01:55:42;92375.88;;;8.70;54.11
53041;BME280;39326;42.650;23.248;2023-03-21T01:58:09;92380.03;;;8.67;54.04
53041;BME280;39326;42.650;23.248;2023-03-21T02:00:36;92387.59;;;8.62;54.13
53041;BME280;39326;42.650;23.248;2023-03-21T02:03:05;92392.50;;;8.53;54.10
53041;BME280;39326;42.650;23.248;2023-03-21T02:05:56;92388.28;;;8.44;54.60
53041;BME280;39326;42.650;23.248;2023-03-21T02:08:25;92377.97;;;8.36;54.26
53041;BME280;39326;42.650;23.248;2023-03-21T02:10:51;92378.72;;;8.33;54.37
53041;BME280;39326;42.650;23.248;2023-03-21T02:13:17;92385.13;;;8.32;54.16
53041;BME280;39326;42.650;23.248;2023-03-21T02:16:01;92380.66;;;8.39;54.26
53041;BME280;39326;42.650;23.248;2023-03-21T02:19:03;92381.34;;;8.29;54.29
53041;BME280;39326;42.650;23.248;2023-03-21T02:27:36;92368.69;;;8.01;54.66
53041;BME280;39326;42.650;23.248;2023-03-21T02:36:04;92366.31;;;7.92;55.09
53041;BME280;39326;42.650;23.248;2023-03-21T02:41:28;92367.91;;;8.04;54.68
53041;BME280;39326;42.650;23.248;2023-03-21T02:47:07;92360.72;;;8.05;53.89
53041;BME280;39326;42.650;23.248;2023-03-21T02:52:15;92356.47;;;7.93;54.25
53041;BME280;39326;42.650;23.248;2023-03-21T02:54:43;92359.50;;;7.91;54.59
53041;BME280;39326;42.650;23.248;2023-03-21T02:57:10;92351.16;;;7.89;54.53
53041;BME280;39326;42.650;23.248;2023-03-21T02:59:37;92346.97;;;7.88;54.53
53041;BME280;39326;42.650;23.248;2023-03-21T03:02:04;92349.97;;;7.87;54.17
53041;BME280;39326;42.650;23.248;2023-03-21T03:04:30;92362.16;;;7.88;54.24
53041;BME280;39326;42.650;23.248;2023-03-21T03:18:01;92361.44;;;7.98;54.75
53041;BME280;39326;42.650;23.248;2023-03-21T03:28:41;92365.53;;;7.85;55.05
53041;BME280;39326;42.650;23.248;2023-03-21T03:31:11;92372.34;;;7.86;55.20
53041;BME280;39326;42.650;23.248;2023-03-21T03:33:43;92373.06;;;7.79;54.84
53041;BME280;39326;42.650;23.248;2023-03-21T03:36:12;92370.00;;;7.74;54.95
53041;BME280;39326;42.650;23.248;2023-03-21T03:38:41;92371.16;;;7.76;55.38
53041;BME280;39326;42.650;23.248;2023-03-21T03:41:14;92373.41;;;7.74;55.89
53041;BME280;39326;42.650;23.248;2023-03-21T03:43:48;92371.59;;;7.85;55.52
53041;BME280;39326;42.650;23.248;2023-03-21T03:46:41;92377.63;;;7.79;55.83
53041;BME280;39326;42.650;23.248;2023-03-21T03:49:14;92375.59;;;7.61;56.85
53041;BME280;39326;42.650;23.248;2023-03-21T03:51:54;92376.63;;;7.50;57.48
53041;BME280;39326;42.650;23.248;2023-03-21T03:54:27;92359.13;;;7.38;57.25
53041;BME280;39326;42.650;23.248;2023-03-21T03:56:55;92371.28;;;7.43;56.95
53041;BME280;39326;42.650;23.248;2023-03-21T03:59:21;92368.63;;;7.43;57.10
53041;BME280;39326;42.650;23.248;2023-03-21T04:01:49;92363.25;;;7.35;57.65
53041;BME280;39326;42.650;23.248;2023-03-21T04:04:16;92361.31;;;7.29;57.91
53041;BME280;39326;42.650;23.248;2023-03-21T04:06:43;92360.94;;;7.30;58.42
53041;BME280;39326;42.650;23.248;2023-03-21T04:09:10;92363.63;;;7.34;57.71
53041;BME280;39326;42.650;23.248;2023-03-21T04:11:36;92360.66;;;7.43;57.58
53041;BME280;39326;42.650;23.248;2023-03-21T04:14:02;92362.19;;;7.44;57.41
53041;BME280;39326;42.650;23.248;2023-03-21T04:16:28;92350.78;;;7.39;57.17
53041;BME280;39326;42.650;23.248;2023-03-21T04:18:56;92352.72;;;7.43;57.11
53041;BME280;39326;42.650;23.248;2023-03-21T04:21:22;92347.72;;;7.37;57.46
53041;BME280;39326;42.650;23.248;2023-03-21T04:23:48;92346.59;;;7.35;57.67
53041;BME280;39326;42.650;23.248;2023-03-21T04:26:14;92355.31;;;7.35;57.79
53041;BME280;39326;42.650;23.248;2023-03-21T04:28:40;92349.56;;;7.26;58.21
53041;BME280;39326;42.650;23.248;2023-03-21T04:31:07;92347.59;;;7.20;58.35
53041;BME280;39326;42.650;23.248;2023-03-21T04:33:38;92358.16;;;7.16;58.43
53041;BME280;39326;42.650;23.248;2023-03-21T04:36:05;92352.50;;;7.18;58.18
53041;BME280;39326;42.650;23.248;2023-03-21T04:38:34;92368.44;;;7.21;58.06
53041;BME280;39326;42.650;23.248;2023-03-21T04:41:02;92360.50;;;7.25;58.40
53041;BME280;39326;42.650;23.248;2023-03-21T04:43:27;92360.94;;;7.27;58.46
53041;BME280;39326;42.650;23.248;2023-03-21T04:45:54;92359.47;;;7.33;58.66
53041;BME280;39326;42.650;23.248;2023-03-21T04:48:20;92353.34;;;7.29;59.07
53041;BME280;39326;42.650;23.248;2023-03-21T04:50:49;92362.38;;;7.21;59.59
53041;BME280;39326;42.650;23.248;2023-03-21T04:53:16;92362.88;;;7.33;59.05
53041;BME280;39326;42.650;23.248;2023-03-21T04:55:42;92367.47;;;7.40;59.53
53041;BME280;39326;42.650;23.248;2023-03-21T04:58:09;92365.22;;;7.42;59.12
53041;BME280;39326;42.650;23.248;2023-03-21T05:00:36;92364.50;;;7.45;59.65
53041;BME280;39326;42.650;23.248;2023-03-21T05:03:04;92366.72;;;7.43;59.47
53041;BME280;39326;42.650;23.248;2023-03-21T05:05:37;92365.97;;;7.43;59.77
53041;BME280;39326;42.650;23.248;2023-03-21T05:08:04;92366.44;;;7.52;59.58
53041;BME280;39326;42.650;23.248;2023-03-21T05:10:30;92366.81;;;7.54;59.95
53041;BME280;39326;42.650;23.248;2023-03-21T05:12:57;92370.28;;;7.58;59.90
53041;BME280;39326;42.650;23.248;2023-03-21T05:15:22;92372.59;;;7.63;59.90
53041;BME280;39326;42.650;23.248;2023-03-21T05:17:48;92382.09;;;7.68;60.62
53041;BME280;39326;42.650;23.248;2023-03-21T05:20:17;92383.97;;;7.67;60.34
53041;BME280;39326;42.650;23.248;2023-03-21T05:22:43;92373.34;;;7.63;60.49
53041;BME280;39326;42.650;23.248;2023-03-21T05:25:10;92374.88;;;7.64;60.83
53041;BME280;39326;42.650;23.248;2023-03-21T05:27:37;92384.75;;;7.68;60.46
53041;BME280;39326;42.650;23.248;2023-03-21T05:30:16;92373.41;;;7.71;60.78
53041;BME280;39326;42.650;23.248;2023-03-21T05:32:43;92380.25;;;7.75;60.11
53041;BME280;39326;42.650;23.248;2023-03-21T05:35:10;92378.41;;;7.83;60.06
53041;BME280;39326;42.650;23.248;2023-03-21T05:37:36;92379.94;;;7.87;59.58
53041;BME280;39326;42.650;23.248;2023-03-21T05:40:04;92373.16;;;7.90;59.62
53041;BME280;39326;42.650;23.248;2023-03-21T05:42:32;92376.66;;;8.01;60.12
53041;BME280;39326;42.650;23.248;2023-03-21T05:44:58;92375.16;;;8.11;60.07
53041;BME280;39326;42.650;23.248;2023-03-21T05:47:24;92372.53;;;8.14;59.56
53041;BME280;39326;42.650;23.248;2023-03-21T05:49:51;92369.22;;;8.35;59.77
53041;BME280;39326;42.650;23.248;2023-03-21T05:52:16;92364.38;;;8.44;59.50
53041;BME280;39326;42.650;23.248;2023-03-21T05:54:42;92363.59;;;8.44;60.15
53041;BME280;39326;42.650;23.248;2023-03-21T05:57:09;92362.16;;;8.61;59.93
53041;BME280;39326;42.650;23.248;2023-03-21T05:59:35;92361.03;;;8.69;59.27
53041;BME280;39326;42.650;23.248;2023-03-21T06:02:01;92359.53;;;8.75;59.81
53041;BME280;39326;42.650;23.248;2023-03-21T06:04:27;92355.78;;;8.87;59.52
53041;BME280;39326;42.650;23.248;2023-03-21T06:06:53;92356.56;;;8.98;58.78
53041;BME280;39326;42.650;23.248;2023-03-21T06:09:21;92360.41;;;9.08;58.53
53041;BME280;39326;42.650;23.248;2023-03-21T06:11:49;92357.34;;;9.13;59.00
53041;BME280;39326;42.650;23.248;2023-03-21T06:14:17;92355.81;;;9.12;59.52
53041;BME280;39326;42.650;23.248;2023-03-21T06:16:43;92353.94;;;9.12;58.16
53041;BME280;39326;42.650;23.248;2023-03-21T06:19:09;92350.91;;;9.21;58.36
53041;BME280;39326;42.650;23.248;2023-03-21T06:21:35;92345.59;;;9.42;57.49
53041;BME280;39326;42.650;23.248;2023-03-21T06:24:01;92344.84;;;9.60;57.10
53041;BME280;39326;42.650;23.248;2023-03-21T06:26:28;92339.88;;;9.76;56.80
53041;BME280;39326;42.650;23.248;2023-03-21T06:28:54;92342.94;;;9.85;56.33
53041;BME280;39326;42.650;23.248;2023-03-21T06:31:21;92336.44;;;9.82;56.26
53041;BME280;39326;42.650;23.248;2023-03-21T06:33:51;92332.63;;;9.94;56.18
53041;BME280;39326;42.650;23.248;2023-03-21T06:36:18;92334.53;;;10.04;56.79
53041;BME280;39326;42.650;23.248;2023-03-21T06:38:44;92344.78;;;10.13;55.97
53041;BME280;39326;42.650;23.248;2023-03-21T06:41:11;92347.84;;;10.22;55.94
53041;BME280;39326;42.650;23.248;2023-03-21T06:43:38;92348.94;;;10.35;56.17
53041;BME280;39326;42.650;23.248;2023-03-21T06:46:04;92352.69;;;10.49;55.90
53041;BME280;39326;42.650;23.248;2023-03-21T06:48:31;92351.84;;;10.70;55.82
53041;BME280;39326;42.650;23.248;2023-03-21T06:50:57;92354.47;;;10.80;55.10
53041;BME280;39326;42.650;23.248;2023-03-21T06:53:24;92359.44;;;10.78;55.13
53041;BME280;39326;42.650;23.248;2023-03-21T06:55:53;92357.91;;;10.84;54.87
53041;BME280;39326;42.650;23.248;2023-03-21T06:58:19;92365.50;;;10.86;53.91
53041;BME280;39326;42.650;23.248;2023-03-21T07:00:45;92363.53;;;11.01;53.19
53041;BME280;39326;42.650;23.248;2023-03-21T07:03:12;92363.81;;;11.13;53.66
53041;BME280;39326;42.650;23.248;2023-03-21T07:05:38;92367.69;;;11.02;53.49
53041;BME280;39326;42.650;23.248;2023-03-21T07:08:05;92365.34;;;11.18;53.36
53041;BME280;39326;42.650;23.248;2023-03-21T07:10:32;92360.25;;;11.38;52.94
53041;BME280;39326;42.650;23.248;2023-03-21T07:12:58;92364.03;;;11.48;52.51
53041;BME280;39326;42.650;23.248;2023-03-21T07:15:25;92362.84;;;11.52;52.59
53041;BME280;39326;42.650;23.248;2023-03-21T07:17:51;92366.59;;;11.65;52.29
53041;BME280;39326;42.650;23.248;2023-03-21T07:20:17;92363.13;;;11.68;52.15
53041;BME280;39326;42.650;23.248;2023-03-21T07:22:43;92367.28;;;11.73;52.13
53041;BME280;39326;42.650;23.248;2023-03-21T07:25:10;92360.84;;;11.63;52.71
53041;BME280;39326;42.650;23.248;2023-03-21T07:27:36;92355.03;;;11.79;51.92
53041;BME280;39326;42.650;23.248;2023-03-21T07:30:03;92355.47;;;11.70;51.91
53041;BME280;39326;42.650;23.248;2023-03-21T07:32:36;92358.06;;;11.81;51.94
53041;BME280;39326;42.650;23.248;2023-03-21T07:35:03;92363.66;;;11.94;51.95
53041;BME280;39326;42.650;23.248;2023-03-21T07:37:29;92361.34;;;11.96;51.39
53041;BME280;39326;42.650;23.248;2023-03-21T07:39:55;92364.06;;;11.92;51.00
53041;BME280;39326;42.650;23.248;2023-03-21T07:42:21;92371.34;;;11.88;51.36
53041;BME280;39326;42.650;23.248;2023-03-21T07:44:47;92373.81;;;11.68;50.85
53041;BME280;39326;42.650;23.248;2023-03-21T07:47:13;92367.19;;;11.84;51.08
53041;BME280;39326;42.650;23.248;2023-03-21T07:49:39;92371.94;;;12.10;50.18
53041;BME280;39326;42.650;23.248;2023-03-21T07:52:05;92373.44;;;12.11;50.14
53041;BME280;39326;42.650;23.248;2023-03-21T07:54:32;92372.44;;;11.98;49.84
53041;BME280;39326;42.650;23.248;2023-03-21T07:56:58;92372.28;;;12.16;49.15
53041;BME280;39326;42.650;23.248;2023-03-21T07:59:24;92380.63;;;12.18;49.36
53041;BME280;39326;42.650;23.248;2023-03-21T08:01:50;92377.41;;;12.34;48.85
53041;BME280;39326;42.650;23.248;2023-03-21T08:04:16;92379.81;;;12.24;49.31
53041;BME280;39326;42.650;23.248;2023-03-21T08:06:42;92376.06;;;12.18;48.67
53041;BME280;39326;42.650;23.248;2023-03-21T08:09:08;92374.75;;;12.34;48.24
53041;BME280;39326;42.650;23.248;2023-03-21T08:11:34;92373.72;;;12.20;48.14
53041;BME280;39326;42.650;23.248;2023-03-21T08:14:00;92372.44;;;12.36;48.75
53041;BME280;39326;42.650;23.248;2023-03-21T08:16:28;92371.56;;;12.46;48.58
53041;BME280;39326;42.650;23.248;2023-03-21T08:18:54;92356.91;;;12.23;48.20
53041;BME280;39326;42.650;23.248;2023-03-21T08:21:19;92366.28;;;12.42;48.35
53041;BME280;39326;42.650;23.248;2023-03-21T08:23:46;92360.94;;;12.39;48.52
53041;BME280;39326;42.650;23.248;2023-03-21T08:26:12;92362.75;;;12.11;47.42
53041;BME280;39326;42.650;23.248;2023-03-21T08:28:42;92358.75;;;12.30;48.15
53041;BME280;39326;42.650;23.248;2023-03-21T08:31:10;92367.06;;;12.39;48.01
53041;BME280;39326;42.650;23.248;2023-03-21T08:33:36;92366.44;;;12.62;47.49
53041;BME280;39326;42.650;23.248;2023-03-21T08:36:03;92363.50;;;12.87;46.27
53041;BME280;39326;42.650;23.248;2023-03-21T08:38:29;92359.88;;;13.01;46.07
53041;BME280;39326;42.650;23.248;2023-03-21T08:41:01;92359.00;;;13.11;46.20
53041;BME280;39326;42.650;23.248;2023-03-21T08:43:27;92364.47;;;13.00;45.94
53041;BME280;39326;42.650;23.248;2023-03-21T08:45:54;92364.16;;;12.95;45.72
53041;BME280;39326;42.650;23.248;2023-03-21T08:48:21;92358.78;;;12.98;46.01
53041;BME280;39326;42.650;23.248;2023-03-21T08:50:47;92361.25;;;13.13;45.64
53041;BME280;39326;42.650;23.248;2023-03-21T08:53:13;92365.19;;;13.04;45.58
53041;BME280;39326;42.650;23.248;2023-03-21T08:55:39;92368.34;;;12.96;45.30
53041;BME280;39326;42.650;23.248;2023-03-21T08:58:05;92366.31;;;13.07;45.78
53041;BME280;39326;42.650;23.248;2023-03-21T09:00:32;92366.94;;;13.18;45.05
53041;BME280;39326;42.650;23.248;2023-03-21T09:02:58;92358.75;;;13.29;45.04
53041;BME280;39326;42.650;23.248;2023-03-21T09:05:24;92356.16;;;13.22;44.57
53041;BME280;39326;42.650;23.248;2023-03-21T09:07:51;92354.47;;;13.35;44.36
53041;BME280;39326;42.650;23.248;2023-03-21T09:10:22;92352.13;;;13.37;44.32
53041;BME280;39326;42.650;23.248;2023-03-21T09:12:50;92347.34;;;13.21;44.30
53041;BME280;39326;42.650;23.248;2023-03-21T09:15:17;92347.13;;;13.39;44.53
53041;BME280;39326;42.650;23.248;2023-03-21T09:17:45;92347.28;;;13.55;43.73
53041;BME280;39326;42.650;23.248;2023-03-21T09:20:15;92341.94;;;13.52;44.36
53041;BME280;39326;42.650;23.248;2023-03-21T09:22:49;92338.53;;;13.51;44.13
53041;BME280;39326;42.650;23.248;2023-03-21T09:25:17;92322.97;;;13.43;43.77
53041;BME280;39326;42.650;23.248;2023-03-21T09:27:43;92324.25;;;13.58;44.00
53041;BME280;39326;42.650;23.248;2023-03-21T09:30:14;92328.25;;;13.46;44.26
53041;BME280;39326;42.650;23.248;2023-03-21T09:32:41;92330.16;;;13.22;44.03
53041;BME280;39326;42.650;23.248;2023-03-21T09:35:06;92328.97;;;13.50;44.46
53041;BME280;39326;42.650;23.248;2023-03-21T09:37:33;92322.81;;;13.26;44.85
53041;BME280;39326;42.650;23.248;2023-03-21T09:40:03;92310.19;;;13.27;44.89
53041;BME280;39326;42.650;23.248;2023-03-21T09:42:45;92313.22;;;13.52;44.24
53041;BME280;39326;42.650;23.248;2023-03-21T09:45:31;92315.63;;;13.70;44.28
53041;BME280;39326;42.650;23.248;2023-03-21T09:48:00;92305.69;;;13.94;43.68
53041;BME280;39326;42.650;23.248;2023-03-21T09:50:32;92305.72;;;14.14;43.17
53041;BME280;39326;42.650;23.248;2023-03-21T09:53:05;92301.41;;;14.20;43.00
53041;BME280;39326;42.650;23.248;2023-03-21T09:55:34;92308.66;;;14.23;44.13
53041;BME280;39326;42.650;23.248;2023-03-21T09:58:17;92300.66;;;14.20;43.39
53041;BME280;39326;42.650;23.248;2023-03-21T10:00:49;92300.38;;;14.14;43.48
53041;BME280;39326;42.650;23.248;2023-03-21T10:03:26;92295.16;;;14.27;43.58
53041;BME280;39326;42.650;23.248;2023-03-21T10:05:55;92290.28;;;14.42;44.19
53041;BME280;39326;42.650;23.248;2023-03-21T10:08:31;92285.31;;;14.40;43.55
53041;BME280;39326;42.650;23.248;2023-03-21T10:11:27;92288.00;;;14.60;43.49
53041;BME280;39326;42.650;23.248;2023-03-21T10:14:01;92279.09;;;15.03;44.25
53041;BME280;39326;42.650;23.248;2023-03-21T10:16:33;92276.97;;;15.63;42.98
53041;BME280;39326;42.650;23.248;2023-03-21T10:19:05;92283.41;;;15.82;42.63
53041;BME280;39326;42.650;23.248;2023-03-21T10:21:37;92287.25;;;16.13;41.27
53041;BME280;39326;42.650;23.248;2023-03-21T10:24:04;92280.31;;;15.99;41.14
53041;BME280;39326;42.650;23.248;2023-03-21T10:26:30;92280.78;;;16.11;41.11
53041;BME280;39326;42.650;23.248;2023-03-21T10:28:58;92273.41;;;15.82;40.87
53041;BME280;39326;42.650;23.248;2023-03-21T10:31:27;92281.47;;;15.98;41.18
53041;BME280;39326;42.650;23.248;2023-03-21T10:33:57;92287.03;;;16.37;40.81
53041;BME280;39326;42.650;23.248;2023-03-21T10:36:28;92291.97;;;16.09;40.06
53041;BME280;39326;42.650;23.248;2023-03-21T10:39:01;92284.34;;;16.08;39.36
53041;BME280;39326;42.650;23.248;2023-03-21T10:41:29;92283.44;;;16.27;39.50
53041;BME280;39326;42.650;23.248;2023-03-21T10:46:37;92284.19;;;16.57;39.23
53041;BME280;39326;42.650;23.248;2023-03-21T10:49:06;92286.25;;;16.65;38.39
53041;BME280;39326;42.650;23.248;2023-03-21T10:51:35;92287.13;;;16.62;37.64
53041;BME280;39326;42.650;23.248;2023-03-21T10:54:07;92276.97;;;16.24;37.39
53041;BME280;39326;42.650;23.248;2023-03-21T10:56:37;92274.84;;;15.87;38.07
53041;BME280;39326;42.650;23.248;2023-03-21T10:59:05;92279.44;;;16.19;37.53
53041;BME280;39326;42.650;23.248;2023-03-21T11:01:42;92273.78;;;16.42;37.63
53041;BME280;39326;42.650;23.248;2023-03-21T11:04:17;92269.50;;;16.16;37.18
53041;BME280;39326;42.650;23.248;2023-03-21T11:06:50;92270.56;;;16.06;37.45
53041;BME280;39326;42.650;23.248;2023-03-21T11:09:19;92258.03;;;15.99;38.06
53041;BME280;39326;42.650;23.248;2023-03-21T11:12:03;92262.22;;;15.84;37.09
53041;BME280;39326;42.650;23.248;2023-03-21T11:14:35;92263.50;;;15.95;37.81
53041;BME280;39326;42.650;23.248;2023-03-21T11:19:58;92257.22;;;15.69;37.57
53041;BME280;39326;42.650;23.248;2023-03-21T11:22:27;92251.25;;;15.94;38.15
53041;BME280;39326;42.650;23.248;2023-03-21T11:25:00;92249.78;;;16.06;37.62
53041;BME280;39326;42.650;23.248;2023-03-21T11:27:30;92234.25;;;16.26;38.98
53041;BME280;39326;42.650;23.248;2023-03-21T11:29:58;92233.09;;;16.40;38.08
53041;BME280;39326;42.650;23.248;2023-03-21T11:32:29;92238.50;;;16.53;37.97
53041;BME280;39326;42.650;23.248;2023-03-21T11:35:15;92230.91;;;16.64;37.83
53041;BME280;39326;42.650;23.248;2023-03-21T11:37:45;92240.28;;;16.72;37.21
53041;BME280;39326;42.650;23.248;2023-03-21T11:42:47;92220.91;;;16.36;37.09
53041;BME280;39326;42.650;23.248;2023-03-21T11:45:15;92226.53;;;16.41;37.68
53041;BME280;39326;42.650;23.248;2023-03-21T11:47:42;92224.09;;;16.60;37.24
53041;BME280;39326;42.650;23.248;2023-03-21T11:50:18;92215.44;;;16.39;37.09
53041;BME280;39326;42.650;23.248;2023-03-21T12:09:41;92201.47;;;16.44;37.00
53041;BME280;39326;42.650;23.248;2023-03-21T12:15:00;92188.66;;;16.07;36.83
53041;BME280;39326;42.650;23.248;2023-03-21T12:22:51;92196.06;;;16.03;36.63
53041;BME280;39326;42.650;23.248;2023-03-21T12:25:29;92188.69;;;15.90;36.76
53041;BME280;39326;42.650;23.248;2023-03-21T12:31:31;92176.72;;;16.08;36.98
53041;BME280;39326;42.650;23.248;2023-03-21T12:39:20;92175.47;;;16.25;36.21
53041;BME280;39326;42.650;23.248;2023-03-21T12:45:09;92178.81;;;16.29;36.27
53041;BME280;39326;42.650;23.248;2023-03-21T12:47:40;92171.84;;;16.32;36.06
53041;BME280;39326;42.650;23.248;2023-03-21T12:50:32;92168.16;;;16.25;36.42
53041;BME280;39326;42.650;23.248;2023-03-21T12:55:52;92166.03;;;16.04;37.08
53041;BME280;39326;42.650;23.248;2023-03-21T12:58:23;92162.50;;;16.07;36.49
53041;BME280;39326;42.650;23.248;2023-03-21T13:00:53;92152.81;;;16.10;36.12
53041;BME280;39326;42.650;23.248;2023-03-21T13:03:23;92146.31;;;16.36;35.96
53041;BME280;39326;42.650;23.248;2023-03-21T13:05:55;92144.59;;;16.42;36.52
53041;BME280;39326;42.650;23.248;2023-03-21T13:08:35;92145.03;;;16.41;36.13
53041;BME280;39326;42.650;23.248;2023-03-21T13:11:04;92146.97;;;16.53;35.02
53041;BME280;39326;42.650;23.248;2023-03-21T13:14:03;92145.16;;;16.50;35.36
53041;BME280;39326;42.650;23.248;2023-03-21T13:19:20;92136.97;;;16.53;35.16
53041;BME280;39326;42.650;23.248;2023-03-21T13:21:56;92139.09;;;16.20;35.39
53041;BME280;39326;42.650;23.248;2023-03-21T13:27:17;92140.03;;;15.85;36.20
53041;BME280;39326;42.650;23.248;2023-03-21T13:29:59;92138.16;;;15.69;36.63
53041;BME280;39326;42.650;23.248;2023-03-21T13:35:18;92124.94;;;15.75;36.54
53041;BME280;39326;42.650;23.248;2023-03-21T13:37:56;92131.78;;;15.63;36.74
53041;BME280;39326;42.650;23.248;2023-03-21T13:42:52;92124.88;;;15.91;37.68
53041;BME280;39326;42.650;23.248;2023-03-21T13:45:30;92124.19;;;16.03;37.31
53041;BME280;39326;42.650;23.248;2023-03-21T13:48:12;92111.75;;;15.80;37.80
53041;BME280;39326;42.650;23.248;2023-03-21T13:50:52;92116.78;;;15.78;37.64
53041;BME280;39326;42.650;23.248;2023-03-21T13:53:23;92114.06;;;15.94;37.46
53041;BME280;39326;42.650;23.248;2023-03-21T13:56:19;92114.63;;;16.02;37.77
53041;BME280;39326;42.650;23.248;2023-03-21T14:04:25;92111.41;;;15.78;38.08
53041;BME280;39326;42.650;23.248;2023-03-21T14:06:57;92114.28;;;15.71;37.62
53041;BME280;39326;42.650;23.248;2023-03-21T14:09:36;92110.94;;;15.67;37.61
53041;BME280;39326;42.650;23.248;2023-03-21T14:12:06;92110.78;;;15.58;37.72
53041;BME280;39326;42.650;23.248;2023-03-21T14:14:50;92107.13;;;15.52;38.18
53041;BME280;39326;42.650;23.248;2023-03-21T14:17:26;92110.75;;;15.45;38.06
53041;BME280;39326;42.650;23.248;2023-03-21T14:19:54;92102.97;;;15.34;38.32
53041;BME280;39326;42.650;23.248;2023-03-21T14:22:20;92104.47;;;15.35;38.11
53041;BME280;39326;42.650;23.248;2023-03-21T14:24:48;92110.94;;;15.22;38.13
53041;BME280;39326;42.650;23.248;2023-03-21T14:27:19;92104.94;;;15.17;38.37
53041;BME280;39326;42.650;23.248;2023-03-21T14:29:46;92105.69;;;15.18;38.54
53041;BME280;39326;42.650;23.248;2023-03-21T14:32:18;92110.06;;;15.12;38.37
53041;BME280;39326;42.650;23.248;2023-03-21T14:34:46;92103.00;;;15.02;38.24
53041;BME280;39326;42.650;23.248;2023-03-21T14:37:32;92104.34;;;15.10;38.38
53041;BME280;39326;42.650;23.248;2023-03-21T14:40:01;92101.06;;;15.02;38.67
53041;BME280;39326;42.650;23.248;2023-03-21T14:42:31;92097.81;;;14.95;38.77
53041;BME280;39326;42.650;23.248;2023-03-21T14:44:58;92103.00;;;15.02;39.01
53041;BME280;39326;42.650;23.248;2023-03-21T14:47:27;92100.50;;;14.95;39.45
53041;BME280;39326;42.650;23.248;2023-03-21T14:49:54;92101.19;;;14.99;39.42
53041;BME280;39326;42.650;23.248;2023-03-21T14:52:31;92095.56;;;14.93;40.42
53041;BME280;39326;42.650;23.248;2023-03-21T14:54:59;92100.94;;;14.93;41.46